sensor_id;sensor_type;location;lat;lon;timestamp;P1;durP1;ratioP1;P2;durP2;ratioP2
73487;SDS011;61721;42.206;25.320;2023-12-20T00:01:54;10.75;;;5.18;;
73487;SDS011;61721;42.206;25.320;2023-12-20T00:04:21;9.75;;;5.07;;
73487;SDS011;61721;42.206;25.320;2023-12-20T00:06:49;9.60;;;4.50;;
73487;SDS011;61721;42.206;25.320;2023-12-20T00:09:17;8.45;;;5.03;;
73487;SDS011;61721;42.206;25.320;2023-12-20T00:11:45;10.55;;;5.25;;
73487;SDS011;61721;42.206;25.320;2023-12-20T00:14:13;11.57;;;5.05;;
73487;SDS011;61721;42.206;25.320;2023-12-20T00:16:41;9.35;;;5.55;;
73487;SDS011;61721;42.206;25.320;2023-12-20T00:19:08;9.90;;;4.50;;
73487;SDS011;61721;42.206;25.320;2023-12-20T00:21:36;9.15;;;4.80;;
73487;SDS011;61721;42.206;25.320;2023-12-20T00:24:03;12.95;;;5.18;;
73487;SDS011;61721;42.206;25.320;2023-12-20T00:26:31;8.30;;;4.60;;
73487;SDS011;61721;42.206;25.320;2023-12-20T00:28:59;10.00;;;4.55;;
73487;SDS011;61721;42.206;25.320;2023-12-20T00:31:28;12.73;;;5.75;;
73487;SDS011;61721;42.206;25.320;2023-12-20T00:33:56;26.02;;;9.07;;
73487;SDS011;61721;42.206;25.320;2023-12-20T00:36:23;16.27;;;6.85;;
73487;SDS011;61721;42.206;25.320;2023-12-20T00:38:50;13.32;;;7.20;;
73487;SDS011;61721;42.206;25.320;2023-12-20T00:41:18;12.60;;;7.47;;
73487;SDS011;61721;42.206;25.320;2023-12-20T00:43:45;12.35;;;6.93;;
73487;SDS011;61721;42.206;25.320;2023-12-20T00:46:13;13.20;;;6.72;;
73487;SDS011;61721;42.206;25.320;2023-12-20T00:48:42;15.43;;;7.35;;
73487;SDS011;61721;42.206;25.320;2023-12-20T00:51:10;19.05;;;7.38;;
73487;SDS011;61721;42.206;25.320;2023-12-20T00:53:38;13.50;;;7.53;;
73487;SDS011;61721;42.206;25.320;2023-12-20T00:56:05;17.02;;;9.93;;
73487;SDS011;61721;42.206;25.320;2023-12-20T00:58:34;17.42;;;9.27;;
73487;SDS011;61721;42.206;25.320;2023-12-20T01:01:01;20.48;;;11.32;;
73487;SDS011;61721;42.206;25.320;2023-12-20T01:03:27;17.58;;;9.73;;
73487;SDS011;61721;42.206;25.320;2023-12-20T01:05:56;18.02;;;9.50;;
73487;SDS011;61721;42.206;25.320;2023-12-20T01:08:24;17.50;;;9.65;;
73487;SDS011;61721;42.206;25.320;2023-12-20T01:10:51;20.05;;;10.30;;
73487;SDS011;61721;42.206;25.320;2023-12-20T01:13:19;22.83;;;10.18;;
73487;SDS011;61721;42.206;25.320;2023-12-20T01:15:45;18.63;;;9.75;;
73487;SDS011;61721;42.206;25.320;2023-12-20T01:18:13;20.05;;;9.07;;
73487;SDS011;61721;42.206;25.320;2023-12-20T01:20:40;17.50;;;9.07;;
73487;SDS011;61721;42.206;25.320;2023-12-20T01:23:09;16.77;;;8.52;;
73487;SDS011;61721;42.206;25.320;2023-12-20T01:25:37;16.77;;;8.82;;
73487;SDS011;61721;42.206;25.320;2023-12-20T01:28:04;15.50;;;9.15;;
73487;SDS011;61721;42.206;25.320;2023-12-20T01:30:32;16.88;;;8.63;;
73487;SDS011;61721;42.206;25.320;2023-12-20T01:33:00;19.42;;;9.57;;
73487;SDS011;61721;42.206;25.320;2023-12-20T01:35:28;15.95;;;8.60;;
73487;SDS011;61721;42.206;25.320;2023-12-20T01:37:55;16.33;;;8.70;;
73487;SDS011;61721;42.206;25.320;2023-12-20T01:40:24;15.75;;;8.77;;
73487;SDS011;61721;42.206;25.320;2023-12-20T01:42:57;17.67;;;8.70;;
73487;SDS011;61721;42.206;25.320;2023-12-20T01:45:26;15.02;;;8.85;;
73487;SDS011;61721;42.206;25.320;2023-12-20T01:47:53;18.15;;;9.02;;
73487;SDS011;61721;42.206;25.320;2023-12-20T01:50:22;17.48;;;8.95;;
73487;SDS011;61721;42.206;25.320;2023-12-20T01:52:50;14.88;;;9.02;;
73487;SDS011;61721;42.206;25.320;2023-12-20T01:55:21;13.25;;;7.15;;
73487;SDS011;61721;42.206;25.320;2023-12-20T01:57:50;17.65;;;9.13;;
73487;SDS011;61721;42.206;25.320;2023-12-20T02:00:17;14.82;;;8.82;;
73487;SDS011;61721;42.206;25.320;2023-12-20T02:02:48;15.00;;;8.02;;
73487;SDS011;61721;42.206;25.320;2023-12-20T02:05:17;13.63;;;8.13;;
73487;SDS011;61721;42.206;25.320;2023-12-20T02:07:45;13.38;;;7.60;;
73487;SDS011;61721;42.206;25.320;2023-12-20T02:10:12;17.83;;;8.35;;
73487;SDS011;61721;42.206;25.320;2023-12-20T02:15:08;15.40;;;8.10;;
73487;SDS011;61721;42.206;25.320;2023-12-20T02:17:36;18.77;;;8.63;;
73487;SDS011;61721;42.206;25.320;2023-12-20T02:20:06;16.48;;;7.80;;
73487;SDS011;61721;42.206;25.320;2023-12-20T02:22:36;16.95;;;8.40;;
73487;SDS011;61721;42.206;25.320;2023-12-20T02:25:04;15.48;;;8.60;;
73487;SDS011;61721;42.206;25.320;2023-12-20T02:27:31;14.90;;;8.25;;
73487;SDS011;61721;42.206;25.320;2023-12-20T02:29:59;13.82;;;7.00;;
73487;SDS011;61721;42.206;25.320;2023-12-20T02:32:26;13.38;;;7.85;;
73487;SDS011;61721;42.206;25.320;2023-12-20T02:34:54;14.35;;;8.45;;
73487;SDS011;61721;42.206;25.320;2023-12-20T02:37:22;16.52;;;8.50;;
73487;SDS011;61721;42.206;25.320;2023-12-20T02:39:51;16.33;;;8.07;;
73487;SDS011;61721;42.206;25.320;2023-12-20T02:42:18;14.07;;;7.60;;
73487;SDS011;61721;42.206;25.320;2023-12-20T02:44:45;14.48;;;6.95;;
73487;SDS011;61721;42.206;25.320;2023-12-20T02:47:13;14.35;;;7.68;;
73487;SDS011;61721;42.206;25.320;2023-12-20T02:49:40;12.18;;;7.22;;
73487;SDS011;61721;42.206;25.320;2023-12-20T02:52:08;11.70;;;7.00;;
73487;SDS011;61721;42.206;25.320;2023-12-20T02:54:35;11.48;;;6.57;;
73487;SDS011;61721;42.206;25.320;2023-12-20T02:57:04;14.30;;;7.40;;
73487;SDS011;61721;42.206;25.320;2023-12-20T02:59:32;11.95;;;6.97;;
73487;SDS011;61721;42.206;25.320;2023-12-20T03:02:00;13.68;;;7.07;;
73487;SDS011;61721;42.206;25.320;2023-12-20T03:04:27;12.00;;;7.05;;
73487;SDS011;61721;42.206;25.320;2023-12-20T03:06:54;13.38;;;7.43;;
73487;SDS011;61721;42.206;25.320;2023-12-20T03:09:22;11.25;;;6.38;;
73487;SDS011;61721;42.206;25.320;2023-12-20T03:11:49;14.38;;;7.53;;
73487;SDS011;61721;42.206;25.320;2023-12-20T03:14:18;13.90;;;6.97;;
73487;SDS011;61721;42.206;25.320;2023-12-20T03:16:46;14.18;;;7.35;;
73487;SDS011;61721;42.206;25.320;2023-12-20T03:19:16;14.73;;;7.63;;
73487;SDS011;61721;42.206;25.320;2023-12-20T03:21:44;13.15;;;7.05;;
73487;SDS011;61721;42.206;25.320;2023-12-20T03:24:12;13.15;;;7.47;;
73487;SDS011;61721;42.206;25.320;2023-12-20T03:26:39;15.30;;;6.85;;
73487;SDS011;61721;42.206;25.320;2023-12-20T03:29:06;13.60;;;7.53;;
73487;SDS011;61721;42.206;25.320;2023-12-20T03:31:35;14.70;;;7.47;;
73487;SDS011;61721;42.206;25.320;2023-12-20T03:34:03;15.00;;;8.07;;
73487;SDS011;61721;42.206;25.320;2023-12-20T03:36:31;15.95;;;8.48;;
73487;SDS011;61721;42.206;25.320;2023-12-20T03:38:58;17.17;;;8.80;;
73487;SDS011;61721;42.206;25.320;2023-12-20T03:41:25;19.70;;;9.25;;
73487;SDS011;61721;42.206;25.320;2023-12-20T03:44:00;19.25;;;9.02;;
73487;SDS011;61721;42.206;25.320;2023-12-20T03:46:27;21.27;;;8.45;;
73487;SDS011;61721;42.206;25.320;2023-12-20T03:48:56;15.32;;;8.30;;
73487;SDS011;61721;42.206;25.320;2023-12-20T03:51:23;15.35;;;7.35;;
73487;SDS011;61721;42.206;25.320;2023-12-20T03:53:51;16.13;;;8.38;;
73487;SDS011;61721;42.206;25.320;2023-12-20T03:56:18;14.40;;;8.18;;
73487;SDS011;61721;42.206;25.320;2023-12-20T03:58:46;14.48;;;7.47;;
73487;SDS011;61721;42.206;25.320;2023-12-20T04:01:13;13.77;;;7.22;;
73487;SDS011;61721;42.206;25.320;2023-12-20T04:03:41;12.02;;;6.35;;
73487;SDS011;61721;42.206;25.320;2023-12-20T04:06:09;13.10;;;7.18;;
73487;SDS011;61721;42.206;25.320;2023-12-20T04:08:37;13.93;;;6.72;;
73487;SDS011;61721;42.206;25.320;2023-12-20T04:11:04;17.95;;;7.68;;
73487;SDS011;61721;42.206;25.320;2023-12-20T04:13:32;16.92;;;7.68;;
73487;SDS011;61721;42.206;25.320;2023-12-20T04:15:59;13.60;;;8.13;;
73487;SDS011;61721;42.206;25.320;2023-12-20T04:18:26;13.18;;;6.57;;
73487;SDS011;61721;42.206;25.320;2023-12-20T04:20:54;10.25;;;5.10;;
73487;SDS011;61721;42.206;25.320;2023-12-20T04:23:23;7.97;;;4.18;;
73487;SDS011;61721;42.206;25.320;2023-12-20T04:25:51;11.38;;;5.50;;
73487;SDS011;61721;42.206;25.320;2023-12-20T04:28:18;13.65;;;7.18;;
73487;SDS011;61721;42.206;25.320;2023-12-20T04:30:45;9.95;;;5.53;;
73487;SDS011;61721;42.206;25.320;2023-12-20T04:33:13;11.38;;;5.18;;
73487;SDS011;61721;42.206;25.320;2023-12-20T04:35:40;12.60;;;5.10;;
73487;SDS011;61721;42.206;25.320;2023-12-20T04:38:08;11.65;;;5.05;;
73487;SDS011;61721;42.206;25.320;2023-12-20T04:40:37;14.00;;;6.30;;
73487;SDS011;61721;42.206;25.320;2023-12-20T04:43:06;14.52;;;6.57;;
73487;SDS011;61721;42.206;25.320;2023-12-20T04:45:34;13.75;;;6.18;;
73487;SDS011;61721;42.206;25.320;2023-12-20T04:48:02;12.25;;;5.38;;
73487;SDS011;61721;42.206;25.320;2023-12-20T04:50:30;10.65;;;5.93;;
73487;SDS011;61721;42.206;25.320;2023-12-20T04:53:00;11.63;;;6.85;;
73487;SDS011;61721;42.206;25.320;2023-12-20T04:55:28;12.75;;;7.00;;
73487;SDS011;61721;42.206;25.320;2023-12-20T04:57:57;15.45;;;7.10;;
73487;SDS011;61721;42.206;25.320;2023-12-20T05:00:24;17.30;;;9.23;;
73487;SDS011;61721;42.206;25.320;2023-12-20T05:02:51;27.35;;;11.93;;
73487;SDS011;61721;42.206;25.320;2023-12-20T05:05:19;20.05;;;10.35;;
73487;SDS011;61721;42.206;25.320;2023-12-20T05:07:47;15.00;;;7.82;;
73487;SDS011;61721;42.206;25.320;2023-12-20T05:10:14;14.52;;;6.15;;
73487;SDS011;61721;42.206;25.320;2023-12-20T05:12:42;10.52;;;5.65;;
73487;SDS011;61721;42.206;25.320;2023-12-20T05:15:11;9.15;;;4.63;;
73487;SDS011;61721;42.206;25.320;2023-12-20T05:17:38;8.70;;;4.80;;
73487;SDS011;61721;42.206;25.320;2023-12-20T05:20:06;9.88;;;5.40;;
73487;SDS011;61721;42.206;25.320;2023-12-20T05:22:34;14.00;;;5.90;;
73487;SDS011;61721;42.206;25.320;2023-12-20T05:25:02;19.23;;;9.65;;
73487;SDS011;61721;42.206;25.320;2023-12-20T05:27:30;21.98;;;10.80;;
73487;SDS011;61721;42.206;25.320;2023-12-20T05:29:57;20.30;;;11.10;;
73487;SDS011;61721;42.206;25.320;2023-12-20T05:32:26;19.85;;;10.73;;
73487;SDS011;61721;42.206;25.320;2023-12-20T05:34:53;20.65;;;10.25;;
73487;SDS011;61721;42.206;25.320;2023-12-20T05:37:21;22.05;;;10.95;;
73487;SDS011;61721;42.206;25.320;2023-12-20T05:39:48;30.85;;;15.02;;
73487;SDS011;61721;42.206;25.320;2023-12-20T05:42:15;25.85;;;13.65;;
73487;SDS011;61721;42.206;25.320;2023-12-20T05:44:43;14.27;;;7.35;;
73487;SDS011;61721;42.206;25.320;2023-12-20T05:47:11;15.70;;;7.75;;
73487;SDS011;61721;42.206;25.320;2023-12-20T05:49:40;17.75;;;7.97;;
73487;SDS011;61721;42.206;25.320;2023-12-20T05:52:07;13.32;;;7.88;;
73487;SDS011;61721;42.206;25.320;2023-12-20T05:54:34;49.40;;;22.52;;
73487;SDS011;61721;42.206;25.320;2023-12-20T05:57:02;38.50;;;17.25;;
73487;SDS011;61721;42.206;25.320;2023-12-20T05:59:37;22.50;;;11.73;;
73487;SDS011;61721;42.206;25.320;2023-12-20T06:02:04;23.63;;;11.50;;
73487;SDS011;61721;42.206;25.320;2023-12-20T06:04:32;23.10;;;12.20;;
73487;SDS011;61721;42.206;25.320;2023-12-20T06:07:02;24.25;;;12.15;;
73487;SDS011;61721;42.206;25.320;2023-12-20T06:09:29;21.80;;;12.25;;
73487;SDS011;61721;42.206;25.320;2023-12-20T06:11:57;27.52;;;16.60;;
73487;SDS011;61721;42.206;25.320;2023-12-20T06:14:24;28.95;;;16.60;;
73487;SDS011;61721;42.206;25.320;2023-12-20T06:16:52;33.38;;;19.02;;
73487;SDS011;61721;42.206;25.320;2023-12-20T06:19:19;32.53;;;17.77;;
73487;SDS011;61721;42.206;25.320;2023-12-20T06:21:47;24.88;;;11.68;;
73487;SDS011;61721;42.206;25.320;2023-12-20T06:24:16;26.95;;;16.00;;
73487;SDS011;61721;42.206;25.320;2023-12-20T06:26:43;28.92;;;16.70;;
73487;SDS011;61721;42.206;25.320;2023-12-20T06:29:10;17.85;;;10.98;;
73487;SDS011;61721;42.206;25.320;2023-12-20T06:31:38;21.58;;;12.10;;
73487;SDS011;61721;42.206;25.320;2023-12-20T06:34:06;20.88;;;12.15;;
73487;SDS011;61721;42.206;25.320;2023-12-20T06:36:33;20.35;;;11.98;;
73487;SDS011;61721;42.206;25.320;2023-12-20T06:39:01;18.00;;;10.75;;
73487;SDS011;61721;42.206;25.320;2023-12-20T06:41:31;18.50;;;11.45;;
73487;SDS011;61721;42.206;25.320;2023-12-20T06:43:59;22.17;;;12.07;;
73487;SDS011;61721;42.206;25.320;2023-12-20T06:46:26;20.98;;;11.10;;
73487;SDS011;61721;42.206;25.320;2023-12-20T06:48:53;20.17;;;11.52;;
73487;SDS011;61721;42.206;25.320;2023-12-20T06:51:21;24.45;;;12.70;;
73487;SDS011;61721;42.206;25.320;2023-12-20T06:53:50;20.13;;;11.25;;
73487;SDS011;61721;42.206;25.320;2023-12-20T06:56:18;20.80;;;11.55;;
73487;SDS011;61721;42.206;25.320;2023-12-20T06:58:47;16.98;;;10.73;;
73487;SDS011;61721;42.206;25.320;2023-12-20T07:01:14;18.42;;;10.13;;
73487;SDS011;61721;42.206;25.320;2023-12-20T07:03:50;21.92;;;10.32;;
73487;SDS011;61721;42.206;25.320;2023-12-20T07:06:25;17.58;;;9.73;;
73487;SDS011;61721;42.206;25.320;2023-12-20T07:08:52;15.23;;;10.07;;
73487;SDS011;61721;42.206;25.320;2023-12-20T07:11:19;24.95;;;15.35;;
73487;SDS011;61721;42.206;25.320;2023-12-20T07:13:48;23.50;;;12.65;;
73487;SDS011;61721;42.206;25.320;2023-12-20T07:16:16;21.70;;;11.68;;
73487;SDS011;61721;42.206;25.320;2023-12-20T07:18:43;22.95;;;12.38;;
73487;SDS011;61721;42.206;25.320;2023-12-20T07:21:11;18.08;;;11.10;;
73487;SDS011;61721;42.206;25.320;2023-12-20T07:23:38;19.40;;;11.38;;
73487;SDS011;61721;42.206;25.320;2023-12-20T07:26:06;21.92;;;12.60;;
73487;SDS011;61721;42.206;25.320;2023-12-20T07:28:33;23.20;;;13.10;;
73487;SDS011;61721;42.206;25.320;2023-12-20T07:31:02;22.63;;;12.68;;
73487;SDS011;61721;42.206;25.320;2023-12-20T07:33:30;23.33;;;12.70;;
73487;SDS011;61721;42.206;25.320;2023-12-20T07:35:57;27.75;;;12.70;;
73487;SDS011;61721;42.206;25.320;2023-12-20T07:38:26;23.02;;;13.73;;
73487;SDS011;61721;42.206;25.320;2023-12-20T07:40:53;29.40;;;17.52;;
73487;SDS011;61721;42.206;25.320;2023-12-20T07:43:26;32.08;;;18.90;;
73487;SDS011;61721;42.206;25.320;2023-12-20T07:45:53;24.83;;;15.48;;
73487;SDS011;61721;42.206;25.320;2023-12-20T07:48:22;32.25;;;17.80;;
73487;SDS011;61721;42.206;25.320;2023-12-20T07:50:50;30.77;;;18.98;;
73487;SDS011;61721;42.206;25.320;2023-12-20T07:53:18;31.90;;;18.92;;
73487;SDS011;61721;42.206;25.320;2023-12-20T07:55:45;34.50;;;20.05;;
73487;SDS011;61721;42.206;25.320;2023-12-20T07:58:13;34.20;;;21.25;;
73487;SDS011;61721;42.206;25.320;2023-12-20T08:00:40;36.13;;;19.98;;
73487;SDS011;61721;42.206;25.320;2023-12-20T08:03:07;28.02;;;16.33;;
73487;SDS011;61721;42.206;25.320;2023-12-20T08:05:38;30.23;;;18.65;;
73487;SDS011;61721;42.206;25.320;2023-12-20T08:08:06;31.90;;;17.52;;
73487;SDS011;61721;42.206;25.320;2023-12-20T08:10:34;48.67;;;22.02;;
73487;SDS011;61721;42.206;25.320;2023-12-20T08:13:01;36.35;;;22.08;;
73487;SDS011;61721;42.206;25.320;2023-12-20T08:15:29;38.85;;;22.65;;
73487;SDS011;61721;42.206;25.320;2023-12-20T08:17:56;36.25;;;22.05;;
73487;SDS011;61721;42.206;25.320;2023-12-20T08:20:24;34.70;;;22.35;;
73487;SDS011;61721;42.206;25.320;2023-12-20T08:22:53;27.08;;;16.83;;
73487;SDS011;61721;42.206;25.320;2023-12-20T08:25:20;15.32;;;10.05;;
73487;SDS011;61721;42.206;25.320;2023-12-20T08:27:50;15.05;;;9.95;;
73487;SDS011;61721;42.206;25.320;2023-12-20T08:30:17;15.38;;;10.07;;
73487;SDS011;61721;42.206;25.320;2023-12-20T08:32:47;14.02;;;9.75;;
73487;SDS011;61721;42.206;25.320;2023-12-20T08:35:14;18.10;;;11.25;;
73487;SDS011;61721;42.206;25.320;2023-12-20T08:37:43;13.38;;;9.95;;
73487;SDS011;61721;42.206;25.320;2023-12-20T08:40:12;19.88;;;11.30;;
73487;SDS011;61721;42.206;25.320;2023-12-20T08:42:40;17.58;;;11.45;;
73487;SDS011;61721;42.206;25.320;2023-12-20T08:45:08;21.40;;;13.65;;
73487;SDS011;61721;42.206;25.320;2023-12-20T08:47:36;18.83;;;12.30;;
73487;SDS011;61721;42.206;25.320;2023-12-20T08:50:03;17.27;;;11.45;;
73487;SDS011;61721;42.206;25.320;2023-12-20T08:52:31;14.80;;;9.73;;
73487;SDS011;61721;42.206;25.320;2023-12-20T08:54:59;19.98;;;12.20;;
73487;SDS011;61721;42.206;25.320;2023-12-20T08:57:28;14.50;;;9.65;;
73487;SDS011;61721;42.206;25.320;2023-12-20T08:59:57;14.73;;;9.27;;
73487;SDS011;61721;42.206;25.320;2023-12-20T09:02:24;12.98;;;7.72;;
73487;SDS011;61721;42.206;25.320;2023-12-20T09:04:52;13.27;;;8.57;;
73487;SDS011;61721;42.206;25.320;2023-12-20T09:07:22;12.75;;;8.02;;
73487;SDS011;61721;42.206;25.320;2023-12-20T09:09:50;12.25;;;7.80;;
73487;SDS011;61721;42.206;25.320;2023-12-20T09:12:18;13.73;;;7.90;;
73487;SDS011;61721;42.206;25.320;2023-12-20T09:14:47;11.90;;;7.60;;
73487;SDS011;61721;42.206;25.320;2023-12-20T09:17:15;12.90;;;8.30;;
73487;SDS011;61721;42.206;25.320;2023-12-20T09:19:44;12.75;;;8.48;;
73487;SDS011;61721;42.206;25.320;2023-12-20T09:22:12;14.63;;;9.65;;
73487;SDS011;61721;42.206;25.320;2023-12-20T09:24:39;16.55;;;9.18;;
73487;SDS011;61721;42.206;25.320;2023-12-20T09:27:08;13.30;;;8.93;;
73487;SDS011;61721;42.206;25.320;2023-12-20T09:29:35;16.02;;;9.63;;
73487;SDS011;61721;42.206;25.320;2023-12-20T09:32:04;15.10;;;9.90;;
73487;SDS011;61721;42.206;25.320;2023-12-20T09:34:32;14.85;;;9.65;;
73487;SDS011;61721;42.206;25.320;2023-12-20T09:37:00;17.67;;;11.70;;
73487;SDS011;61721;42.206;25.320;2023-12-20T09:39:28;16.05;;;10.27;;
73487;SDS011;61721;42.206;25.320;2023-12-20T09:42:00;20.00;;;12.20;;
73487;SDS011;61721;42.206;25.320;2023-12-20T09:44:28;19.20;;;12.45;;
73487;SDS011;61721;42.206;25.320;2023-12-20T09:46:56;17.30;;;11.05;;
73487;SDS011;61721;42.206;25.320;2023-12-20T09:49:25;18.05;;;11.20;;
73487;SDS011;61721;42.206;25.320;2023-12-20T09:51:54;17.02;;;10.32;;
73487;SDS011;61721;42.206;25.320;2023-12-20T09:54:23;15.23;;;9.70;;
73487;SDS011;61721;42.206;25.320;2023-12-20T09:56:52;17.85;;;9.15;;
73487;SDS011;61721;42.206;25.320;2023-12-20T09:59:19;14.85;;;9.52;;
73487;SDS011;61721;42.206;25.320;2023-12-20T10:01:47;15.05;;;9.32;;
73487;SDS011;61721;42.206;25.320;2023-12-20T10:04:15;15.20;;;9.27;;
73487;SDS011;61721;42.206;25.320;2023-12-20T10:06:45;15.57;;;9.57;;
73487;SDS011;61721;42.206;25.320;2023-12-20T10:09:12;14.65;;;9.23;;
73487;SDS011;61721;42.206;25.320;2023-12-20T10:11:40;17.25;;;10.05;;
73487;SDS011;61721;42.206;25.320;2023-12-20T10:14:10;16.33;;;9.73;;
73487;SDS011;61721;42.206;25.320;2023-12-20T10:16:38;15.93;;;10.30;;
73487;SDS011;61721;42.206;25.320;2023-12-20T10:19:05;17.48;;;11.82;;
73487;SDS011;61721;42.206;25.320;2023-12-20T10:21:33;18.30;;;11.40;;
73487;SDS011;61721;42.206;25.320;2023-12-20T10:24:02;22.55;;;13.35;;
73487;SDS011;61721;42.206;25.320;2023-12-20T10:26:29;20.40;;;12.93;;
73487;SDS011;61721;42.206;25.320;2023-12-20T10:29:00;14.98;;;10.80;;
73487;SDS011;61721;42.206;25.320;2023-12-20T10:31:29;18.17;;;10.63;;
73487;SDS011;61721;42.206;25.320;2023-12-20T10:33:57;19.52;;;12.50;;
73487;SDS011;61721;42.206;25.320;2023-12-20T10:36:26;23.92;;;13.90;;
73487;SDS011;61721;42.206;25.320;2023-12-20T10:38:55;22.20;;;13.98;;
73487;SDS011;61721;42.206;25.320;2023-12-20T10:41:26;21.13;;;14.15;;
73487;SDS011;61721;42.206;25.320;2023-12-20T10:43:55;20.25;;;13.63;;
73487;SDS011;61721;42.206;25.320;2023-12-20T10:46:26;22.63;;;14.45;;
73487;SDS011;61721;42.206;25.320;2023-12-20T10:48:55;22.15;;;14.98;;
73487;SDS011;61721;42.206;25.320;2023-12-20T10:51:24;22.70;;;14.70;;
73487;SDS011;61721;42.206;25.320;2023-12-20T10:53:54;20.90;;;12.75;;
73487;SDS011;61721;42.206;25.320;2023-12-20T10:56:22;15.77;;;10.93;;
73487;SDS011;61721;42.206;25.320;2023-12-20T10:58:52;18.48;;;12.32;;
73487;SDS011;61721;42.206;25.320;2023-12-20T11:01:19;17.33;;;11.45;;
73487;SDS011;61721;42.206;25.320;2023-12-20T11:03:48;19.23;;;11.57;;
73487;SDS011;61721;42.206;25.320;2023-12-20T11:06:26;18.67;;;12.02;;
73487;SDS011;61721;42.206;25.320;2023-12-20T11:09:05;18.23;;;13.02;;
73487;SDS011;61721;42.206;25.320;2023-12-20T11:11:43;21.30;;;14.15;;
73487;SDS011;61721;42.206;25.320;2023-12-20T11:14:29;22.42;;;14.52;;
73487;SDS011;61721;42.206;25.320;2023-12-20T11:17:07;23.30;;;14.77;;
73487;SDS011;61721;42.206;25.320;2023-12-20T11:19:38;20.90;;;14.63;;
73487;SDS011;61721;42.206;25.320;2023-12-20T11:22:10;20.80;;;13.38;;
73487;SDS011;61721;42.206;25.320;2023-12-20T11:24:38;21.77;;;13.90;;
73487;SDS011;61721;42.206;25.320;2023-12-20T11:27:12;20.45;;;14.13;;
73487;SDS011;61721;42.206;25.320;2023-12-20T11:29:41;21.00;;;13.05;;
73487;SDS011;61721;42.206;25.320;2023-12-20T11:35:16;17.38;;;12.52;;
73487;SDS011;61721;42.206;25.320;2023-12-20T11:37:45;23.63;;;14.65;;
73487;SDS011;61721;42.206;25.320;2023-12-20T11:40:14;20.77;;;14.13;;
73487;SDS011;61721;42.206;25.320;2023-12-20T11:42:48;20.25;;;14.00;;
73487;SDS011;61721;42.206;25.320;2023-12-20T11:47:47;21.65;;;14.68;;
73487;SDS011;61721;42.206;25.320;2023-12-20T11:50:16;18.25;;;12.32;;
73487;SDS011;61721;42.206;25.320;2023-12-20T11:52:44;22.30;;;14.10;;
73487;SDS011;61721;42.206;25.320;2023-12-20T11:55:11;17.92;;;13.38;;
73487;SDS011;61721;42.206;25.320;2023-12-20T11:57:39;21.85;;;13.23;;
73487;SDS011;61721;42.206;25.320;2023-12-20T12:00:08;18.77;;;12.18;;
73487;SDS011;61721;42.206;25.320;2023-12-20T12:02:38;18.90;;;12.05;;
73487;SDS011;61721;42.206;25.320;2023-12-20T12:05:06;22.27;;;12.88;;
73487;SDS011;61721;42.206;25.320;2023-12-20T12:07:34;23.55;;;14.15;;
73487;SDS011;61721;42.206;25.320;2023-12-20T12:10:02;19.83;;;12.75;;
73487;SDS011;61721;42.206;25.320;2023-12-20T12:12:30;21.88;;;12.73;;
73487;SDS011;61721;42.206;25.320;2023-12-20T12:14:58;18.38;;;12.57;;
73487;SDS011;61721;42.206;25.320;2023-12-20T12:17:26;19.95;;;13.63;;
73487;SDS011;61721;42.206;25.320;2023-12-20T12:20:01;20.20;;;13.25;;
73487;SDS011;61721;42.206;25.320;2023-12-20T12:22:30;23.05;;;13.85;;
73487;SDS011;61721;42.206;25.320;2023-12-20T12:24:59;26.00;;;15.43;;
73487;SDS011;61721;42.206;25.320;2023-12-20T12:27:35;21.40;;;13.13;;
73487;SDS011;61721;42.206;25.320;2023-12-20T12:30:04;19.23;;;12.45;;
73487;SDS011;61721;42.206;25.320;2023-12-20T12:32:34;18.98;;;12.50;;
73487;SDS011;61721;42.206;25.320;2023-12-20T12:35:04;26.83;;;15.88;;
73487;SDS011;61721;42.206;25.320;2023-12-20T12:37:33;22.48;;;14.40;;
73487;SDS011;61721;42.206;25.320;2023-12-20T12:42:31;24.27;;;13.70;;
73487;SDS011;61721;42.206;25.320;2023-12-20T12:44:58;22.73;;;14.90;;
73487;SDS011;61721;42.206;25.320;2023-12-20T12:47:26;20.10;;;14.07;;
73487;SDS011;61721;42.206;25.320;2023-12-20T12:49:54;28.25;;;17.58;;
73487;SDS011;61721;42.206;25.320;2023-12-20T12:52:24;22.85;;;13.80;;
73487;SDS011;61721;42.206;25.320;2023-12-20T12:54:52;23.20;;;14.63;;
73487;SDS011;61721;42.206;25.320;2023-12-20T12:57:20;22.80;;;14.18;;
73487;SDS011;61721;42.206;25.320;2023-12-20T12:59:51;26.35;;;17.70;;
73487;SDS011;61721;42.206;25.320;2023-12-20T13:02:46;21.65;;;14.30;;
73487;SDS011;61721;42.206;25.320;2023-12-20T13:05:14;19.80;;;13.75;;
73487;SDS011;61721;42.206;25.320;2023-12-20T13:07:45;22.23;;;14.07;;
73487;SDS011;61721;42.206;25.320;2023-12-20T13:10:13;23.52;;;14.75;;
73487;SDS011;61721;42.206;25.320;2023-12-20T13:12:42;20.48;;;12.60;;
73487;SDS011;61721;42.206;25.320;2023-12-20T13:17:56;20.50;;;13.63;;
73487;SDS011;61721;42.206;25.320;2023-12-20T13:20:24;24.80;;;13.68;;
73487;SDS011;61721;42.206;25.320;2023-12-20T13:22:53;23.70;;;14.27;;
73487;SDS011;61721;42.206;25.320;2023-12-20T13:25:20;22.00;;;13.52;;
73487;SDS011;61721;42.206;25.320;2023-12-20T13:27:48;25.75;;;15.98;;
73487;SDS011;61721;42.206;25.320;2023-12-20T13:30:15;28.98;;;17.25;;
73487;SDS011;61721;42.206;25.320;2023-12-20T13:32:44;28.00;;;18.10;;
73487;SDS011;61721;42.206;25.320;2023-12-20T13:35:11;32.88;;;19.73;;
73487;SDS011;61721;42.206;25.320;2023-12-20T13:37:39;31.95;;;18.20;;
73487;SDS011;61721;42.206;25.320;2023-12-20T13:40:13;23.35;;;15.55;;
73487;SDS011;61721;42.206;25.320;2023-12-20T13:42:50;32.90;;;19.38;;
73487;SDS011;61721;42.206;25.320;2023-12-20T13:45:17;33.67;;;22.10;;
73487;SDS011;61721;42.206;25.320;2023-12-20T13:47:45;28.88;;;17.60;;
73487;SDS011;61721;42.206;25.320;2023-12-20T13:50:12;29.30;;;18.67;;
73487;SDS011;61721;42.206;25.320;2023-12-20T13:52:40;29.00;;;18.52;;
73487;SDS011;61721;42.206;25.320;2023-12-20T13:55:08;28.55;;;16.80;;
73487;SDS011;61721;42.206;25.320;2023-12-20T13:57:37;24.67;;;16.52;;
73487;SDS011;61721;42.206;25.320;2023-12-20T14:00:05;31.40;;;18.10;;
73487;SDS011;61721;42.206;25.320;2023-12-20T14:02:40;29.02;;;17.38;;
73487;SDS011;61721;42.206;25.320;2023-12-20T14:05:08;29.27;;;17.75;;
73487;SDS011;61721;42.206;25.320;2023-12-20T14:07:36;34.15;;;22.42;;
73487;SDS011;61721;42.206;25.320;2023-12-20T14:10:03;41.80;;;22.58;;
73487;SDS011;61721;42.206;25.320;2023-12-20T14:12:32;38.28;;;21.05;;
73487;SDS011;61721;42.206;25.320;2023-12-20T14:15:03;37.88;;;20.42;;
73487;SDS011;61721;42.206;25.320;2023-12-20T14:17:34;47.60;;;23.83;;
73487;SDS011;61721;42.206;25.320;2023-12-20T14:20:02;44.63;;;23.10;;
73487;SDS011;61721;42.206;25.320;2023-12-20T14:22:30;46.45;;;24.17;;
73487;SDS011;61721;42.206;25.320;2023-12-20T14:24:57;48.97;;;25.02;;
73487;SDS011;61721;42.206;25.320;2023-12-20T14:27:25;52.03;;;31.10;;
73487;SDS011;61721;42.206;25.320;2023-12-20T14:29:54;45.90;;;27.48;;
73487;SDS011;61721;42.206;25.320;2023-12-20T14:32:23;44.17;;;26.55;;
73487;SDS011;61721;42.206;25.320;2023-12-20T14:34:52;54.72;;;29.38;;
73487;SDS011;61721;42.206;25.320;2023-12-20T14:37:20;50.50;;;27.50;;